createdAt,value
2022-09-14T00:00:32.184Z,51.291801
2022-09-14T00:01:32.198Z,51.291389
2022-09-14T00:02:32.325Z,51.291580
2022-09-14T00:03:32.140Z,51.291348
2022-09-14T00:04:32.104Z,51.291275
2022-09-14T00:05:32.139Z,51.291237
2022-09-14T00:06:32.115Z,51.291180
2022-09-14T00:07:32.074Z,51.291378
2022-09-14T00:08:32.117Z,51.291229
2022-09-14T00:09:32.055Z,51.291092
2022-09-14T00:10:32.049Z,51.291233
2022-09-14T00:11:32.043Z,51.291222
2022-09-14T00:12:32.054Z,51.291245
2022-09-14T00:13:31.999Z,51.291294
2022-09-14T00:14:31.982Z,51.291325
2022-09-14T00:15:31.991Z,51.291241
2022-09-14T00:16:32.080Z,51.291546
2022-09-14T00:17:31.969Z,51.290962
2022-09-14T00:18:31.947Z,51.291134
2022-09-14T00:19:31.932Z,51.292053
2022-09-14T00:20:31.949Z,51.291286
2022-09-14T00:21:31.951Z,51.291496
2022-09-14T00:22:31.894Z,51.291733
2022-09-14T00:23:32.517Z,51.291645
2022-09-14T00:24:38.504Z,51.291096
2022-09-14T00:25:32.884Z,51.291088
2022-09-14T00:26:31.848Z,51.291306
2022-09-14T00:27:32.443Z,51.291565
2022-09-14T00:28:32.665Z,51.291645
2022-09-14T00:29:31.854Z,51.291313
2022-09-14T00:30:31.828Z,51.291237
2022-09-14T00:31:32.004Z,51.291130
2022-09-14T00:32:31.835Z,51.291302
2022-09-14T00:33:31.837Z,51.292900
2022-09-14T00:34:31.784Z,51.294025
2022-09-14T00:35:31.796Z,51.290791
2022-09-14T00:36:31.769Z,51.290913
2022-09-14T00:37:32.568Z,51.290707
2022-09-14T00:38:31.739Z,51.290874
2022-09-14T00:39:31.763Z,51.292088
2022-09-14T00:40:31.733Z,51.291714
2022-09-14T00:41:31.731Z,51.291447
2022-09-14T00:42:31.705Z,51.291203
2022-09-14T00:43:31.728Z,51.291225
2022-09-14T00:44:31.662Z,51.291111
2022-09-14T00:45:31.698Z,51.291225
2022-09-14T00:46:31.642Z,51.291252
2022-09-14T00:47:31.692Z,51.291233
2022-09-14T00:48:31.688Z,51.291157
2022-09-14T00:49:31.656Z,51.291077
2022-09-14T00:50:31.659Z,51.290985
2022-09-14T00:51:31.602Z,51.291145
2022-09-14T00:52:31.598Z,51.291210
2022-09-14T00:53:31.618Z,51.291058
2022-09-14T00:54:31.577Z,51.291077
2022-09-14T00:55:31.557Z,51.290882
2022-09-14T00:56:31.540Z,51.291069
2022-09-14T00:57:31.545Z,51.291122
2022-09-14T00:58:31.536Z,51.291210
2022-09-14T00:59:31.579Z,51.291245
2022-09-14T01:00:31.500Z,51.291260
2022-09-14T01:01:31.562Z,51.291267
2022-09-14T01:02:31.509Z,51.291199
2022-09-14T01:03:31.455Z,51.291103
2022-09-14T01:04:32.525Z,51.291142
2022-09-14T01:05:31.469Z,51.291267
2022-09-14T01:06:31.415Z,51.291183
2022-09-14T01:07:31.463Z,51.291218
2022-09-14T01:08:31.450Z,51.291176
2022-09-14T01:09:31.441Z,51.291111
2022-09-14T01:10:31.463Z,51.291100
2022-09-14T01:11:31.389Z,51.291103
2022-09-14T01:12:31.399Z,51.291203
2022-09-14T01:13:31.388Z,51.291283
2022-09-14T01:14:31.382Z,51.291306
2022-09-14T01:15:31.425Z,51.291195
2022-09-14T01:16:31.332Z,51.291206
2022-09-14T01:17:31.319Z,51.291168
2022-09-14T01:18:31.311Z,51.291214
2022-09-14T01:19:31.297Z,51.291199
2022-09-14T01:20:31.314Z,51.291225
2022-09-14T01:21:31.254Z,51.291187
2022-09-14T01:22:31.266Z,51.291191
2022-09-14T01:23:31.241Z,51.291241
2022-09-14T01:24:31.265Z,51.291210
2022-09-14T01:25:31.271Z,51.291161
2022-09-14T01:26:31.229Z,51.291157
2022-09-14T01:27:31.206Z,51.291214
2022-09-14T01:28:31.184Z,51.291138
2022-09-14T01:29:31.193Z,51.291222
2022-09-14T01:30:31.198Z,51.291321
2022-09-14T01:31:31.222Z,51.291210
2022-09-14T01:32:31.143Z,51.291134
2022-09-14T01:33:31.177Z,51.291210
2022-09-14T01:34:31.129Z,51.291130
2022-09-14T01:35:31.240Z,51.290970
2022-09-14T01:36:31.111Z,51.291176
2022-09-14T01:37:31.133Z,51.291241
2022-09-14T01:38:31.099Z,51.291420
2022-09-14T01:39:31.084Z,51.291191
2022-09-14T01:40:31.115Z,51.291126
2022-09-14T01:41:31.108Z,51.291245
2022-09-14T01:42:31.047Z,51.291512
2022-09-14T01:43:31.039Z,51.291462
2022-09-14T01:44:31.039Z,51.291222
2022-09-14T01:45:31.047Z,51.291168
2022-09-14T01:46:31.052Z,51.291096
2022-09-14T01:47:30.990Z,51.291218
2022-09-14T01:48:30.971Z,51.291466
2022-09-14T01:49:31.045Z,51.291580
2022-09-14T01:50:30.951Z,51.291325
2022-09-14T01:51:31.023Z,51.291206
2022-09-14T01:52:30.934Z,51.291191
2022-09-14T01:53:30.918Z,51.291210
2022-09-14T01:54:30.945Z,51.291279
2022-09-14T01:55:30.919Z,51.291237
2022-09-14T01:56:30.895Z,51.291168
2022-09-14T01:57:30.945Z,51.291077
2022-09-14T01:58:30.872Z,51.290806
2022-09-14T01:59:30.945Z,51.291016
2022-09-14T02:00:30.848Z,51.291191
2022-09-14T02:01:30.906Z,51.291176
2022-09-14T02:02:30.983Z,51.291073
2022-09-14T02:03:30.810Z,51.291176
2022-09-14T02:04:30.813Z,51.291325
2022-09-14T02:05:30.792Z,51.290993
2022-09-14T02:06:30.762Z,51.290825
2022-09-14T02:07:31.810Z,51.290916
2022-09-14T02:08:30.764Z,51.291233
2022-09-14T02:09:30.736Z,51.291161
2022-09-14T02:10:30.750Z,51.291348
2022-09-14T02:11:30.744Z,51.291573
2022-09-14T02:12:30.747Z,51.291397
2022-09-14T02:13:30.706Z,51.291431
2022-09-14T02:14:30.703Z,51.290588
2022-09-14T02:15:30.667Z,51.291180
2022-09-14T02:16:30.751Z,51.291401
2022-09-14T02:17:30.681Z,51.291481
2022-09-14T02:18:30.636Z,51.291172
2022-09-14T02:19:30.652Z,51.291077
2022-09-14T02:20:30.634Z,51.291309
2022-09-14T02:21:30.630Z,51.291260
2022-09-14T02:22:30.629Z,51.291145
2022-09-14T02:23:30.662Z,51.291229
2022-09-14T02:24:30.590Z,51.291168
2022-09-14T02:25:31.592Z,51.291279
2022-09-14T02:26:30.584Z,51.291050
2022-09-14T02:27:30.804Z,51.291054
2022-09-14T02:28:30.585Z,51.291088
2022-09-14T02:29:30.554Z,51.291145
2022-09-14T02:30:30.539Z,51.291218
2022-09-14T02:31:30.541Z,51.291481
2022-09-14T02:32:30.518Z,51.291328
2022-09-14T02:33:30.528Z,51.291286
2022-09-14T02:34:30.522Z,51.291153
2022-09-14T02:35:30.481Z,51.291389
2022-09-14T02:36:30.627Z,51.291672
2022-09-14T02:37:30.524Z,51.291241
2022-09-14T02:38:30.462Z,51.291199
2022-09-14T02:39:30.585Z,51.291176
2022-09-14T02:40:30.499Z,51.291233
2022-09-14T02:41:30.419Z,51.291332
2022-09-14T02:42:30.457Z,51.291195
2022-09-14T02:43:30.426Z,51.291248
2022-09-14T02:44:30.382Z,51.291286
2022-09-14T02:45:30.403Z,51.291260
2022-09-14T02:46:30.436Z,51.291340
2022-09-14T02:47:30.381Z,51.291714
2022-09-14T02:48:30.347Z,51.291943
2022-09-14T02:49:31.370Z,51.291317
2022-09-14T02:50:30.346Z,51.291145
2022-09-14T02:51:30.321Z,51.291149
2022-09-14T02:52:30.299Z,51.291290
2022-09-14T02:53:30.347Z,51.291229
2022-09-14T02:54:30.297Z,51.291103
2022-09-14T02:55:30.304Z,51.291229
2022-09-14T02:56:30.285Z,51.291225
2022-09-14T02:57:31.275Z,51.291397
2022-09-14T02:58:30.266Z,51.291107
2022-09-14T02:59:30.230Z,51.291306
2022-09-14T03:00:30.223Z,51.291283
2022-09-14T03:01:30.289Z,51.291508
2022-09-14T03:02:30.167Z,51.291294
2022-09-14T03:03:34.841Z,51.291191
2022-09-14T03:04:30.169Z,51.291286
2022-09-14T03:05:30.165Z,51.291199
2022-09-14T03:06:30.134Z,51.290867
2022-09-14T03:07:30.158Z,51.291100
2022-09-14T03:08:30.117Z,51.290974
2022-09-14T03:09:30.143Z,51.291225
2022-09-14T03:10:30.141Z,51.291176
2022-09-14T03:11:30.104Z,51.290962
2022-09-14T03:12:30.122Z,51.291523
2022-09-14T03:13:30.105Z,51.291439
2022-09-14T03:14:30.050Z,51.291401
2022-09-14T03:15:30.056Z,51.291328
2022-09-14T03:16:30.149Z,51.292351
2022-09-14T03:17:30.057Z,51.293774
2022-09-14T03:18:30.048Z,51.293854
2022-09-14T03:19:30.036Z,51.294502
2022-09-14T03:20:29.991Z,51.295155
2022-09-14T03:21:29.999Z,51.295967
2022-09-14T03:22:30.497Z,51.296871
2022-09-14T03:23:30.037Z,51.297829
2022-09-14T03:24:29.953Z,51.299034
2022-09-14T03:25:29.960Z,51.299919
2022-09-14T03:26:29.941Z,51.298805
2022-09-14T03:27:29.948Z,51.297958
2022-09-14T03:28:29.947Z,51.297112
2022-09-14T03:29:29.892Z,51.296394
2022-09-14T03:30:29.918Z,51.295284
2022-09-14T03:31:30.340Z,51.293983
2022-09-14T03:32:29.868Z,51.292908
2022-09-14T03:33:29.865Z,51.292011
2022-09-14T03:34:29.855Z,51.291557
2022-09-14T03:35:29.873Z,51.290962
2022-09-14T03:36:29.817Z,51.291359
2022-09-14T03:37:29.819Z,51.291271
2022-09-14T03:38:29.817Z,51.291054
2022-09-14T03:39:29.830Z,51.291000
2022-09-14T03:40:29.839Z,51.291157
2022-09-14T03:41:29.799Z,51.291210
2022-09-14T03:42:29.758Z,51.291096
2022-09-14T03:43:29.817Z,51.290997
2022-09-14T03:44:29.779Z,51.291050
2022-09-14T03:45:29.771Z,51.291191
2022-09-14T03:46:29.790Z,51.291172
2022-09-14T03:47:29.708Z,51.291260
2022-09-14T03:48:29.707Z,51.291237
2022-09-14T03:49:29.707Z,51.291145
2022-09-14T03:50:29.716Z,51.291172
2022-09-14T03:51:29.687Z,51.291195
2022-09-14T03:52:29.664Z,51.291348
2022-09-14T03:53:29.651Z,51.291313
2022-09-14T03:54:29.647Z,51.291222
2022-09-14T03:55:29.657Z,51.291245
2022-09-14T03:56:29.631Z,51.291500
2022-09-14T03:57:29.586Z,51.291325
2022-09-14T03:58:29.597Z,51.291222
2022-09-14T03:59:29.662Z,51.291275
2022-09-14T04:00:29.566Z,51.291180
2022-09-14T04:01:29.614Z,51.291195
2022-09-14T04:02:29.620Z,51.291260
2022-09-14T04:03:29.540Z,51.290001
2022-09-14T04:04:29.527Z,51.290218
2022-09-14T04:05:30.515Z,51.290966
2022-09-14T04:06:29.562Z,51.290985
2022-09-14T04:07:29.500Z,51.291138
2022-09-14T04:08:29.483Z,51.291218
2022-09-14T04:09:29.461Z,51.291229
2022-09-14T04:10:29.493Z,51.291229
2022-09-14T04:11:29.479Z,51.291176
2022-09-14T04:12:29.441Z,51.291237
2022-09-14T04:13:29.441Z,51.291237
2022-09-14T04:14:29.421Z,51.291290
2022-09-14T04:15:29.420Z,51.291229
2022-09-14T04:16:29.449Z,51.291073
2022-09-14T04:17:30.158Z,51.291080
2022-09-14T04:18:29.389Z,51.291103
2022-09-14T04:19:29.367Z,51.291023
2022-09-14T04:20:29.362Z,51.291153
2022-09-14T04:21:29.344Z,51.291115
2022-09-14T04:22:29.368Z,51.291080
2022-09-14T04:23:29.337Z,51.291168
2022-09-14T04:24:30.638Z,51.291111
2022-09-14T04:25:30.312Z,51.291134
2022-09-14T04:26:30.010Z,51.291069
2022-09-14T04:27:29.288Z,51.291157
2022-09-14T04:28:29.344Z,51.291157
2022-09-14T04:29:29.264Z,51.291031
2022-09-14T04:30:29.255Z,51.291340
2022-09-14T04:31:29.279Z,51.291908
2022-09-14T04:32:34.035Z,51.292744
2022-09-14T04:33:29.442Z,51.292965
2022-09-14T04:34:29.265Z,51.293179
2022-09-14T04:35:29.309Z,51.292744
2022-09-14T04:36:29.199Z,51.291058
2022-09-14T04:37:29.234Z,51.291035
2022-09-14T04:38:29.192Z,51.291462
2022-09-14T04:39:29.177Z,51.291245
2022-09-14T04:40:29.251Z,51.291039
2022-09-14T04:41:29.164Z,51.290878
2022-09-14T04:42:29.125Z,51.290936
2022-09-14T04:43:29.127Z,51.290894
2022-09-14T04:44:29.139Z,51.290894
2022-09-14T04:45:29.115Z,51.290894
2022-09-14T04:46:29.129Z,51.290844
2022-09-14T04:47:29.092Z,51.292862
2022-09-14T04:48:29.070Z,51.292107
2022-09-14T04:49:29.082Z,51.292629
2022-09-14T04:50:29.075Z,51.290970
2022-09-14T04:51:29.027Z,51.290928
2022-09-14T04:52:29.073Z,51.290588
2022-09-14T04:53:29.017Z,51.290600
2022-09-14T04:54:28.993Z,51.291008
2022-09-14T04:55:29.063Z,51.291168
2022-09-14T04:56:28.995Z,51.291000
2022-09-14T04:57:28.973Z,51.290859
2022-09-14T04:58:28.975Z,51.290947
2022-09-14T04:59:28.965Z,51.290966
2022-09-14T05:00:28.985Z,51.290726
2022-09-14T05:01:28.969Z,51.290867
2022-09-14T05:02:28.936Z,51.290848
2022-09-14T05:03:29.005Z,51.290913
2022-09-14T05:04:28.893Z,51.291130
2022-09-14T05:05:28.878Z,51.291229
2022-09-14T05:06:28.896Z,51.291214
2022-09-14T05:07:28.857Z,51.291290
2022-09-14T05:08:28.870Z,51.291241
2022-09-14T05:09:28.839Z,51.291256
2022-09-14T05:10:28.823Z,51.291191
2022-09-14T05:11:28.873Z,51.291145
2022-09-14T05:12:28.849Z,51.291000
2022-09-14T05:13:28.800Z,51.290833
2022-09-14T05:14:28.803Z,51.290863
2022-09-14T05:15:28.767Z,51.290890
2022-09-14T05:16:28.868Z,51.290970
2022-09-14T05:17:28.759Z,51.291302
2022-09-14T05:18:28.748Z,51.291409
2022-09-14T05:19:28.733Z,51.291294
2022-09-14T05:20:28.902Z,51.291477
2022-09-14T05:21:28.719Z,51.291386
2022-09-14T05:22:28.715Z,51.291473
2022-09-14T05:23:28.705Z,51.291439
2022-09-14T05:24:28.694Z,51.291435
2022-09-14T05:25:28.682Z,51.291321
2022-09-14T05:26:28.672Z,51.291351
2022-09-14T05:27:28.671Z,51.291279
2022-09-14T05:28:28.655Z,51.291229
2022-09-14T05:29:28.637Z,51.291214
2022-09-14T05:30:28.629Z,51.291027
2022-09-14T05:31:28.663Z,51.290993
2022-09-14T05:32:28.640Z,51.290924
2022-09-14T05:33:28.611Z,51.290955
2022-09-14T05:34:28.565Z,51.290810
2022-09-14T05:35:28.570Z,51.290962
2022-09-14T05:36:28.583Z,51.290497
2022-09-14T05:37:28.557Z,51.290855
2022-09-14T05:38:28.574Z,51.290791
2022-09-14T05:39:28.536Z,51.290977
2022-09-14T05:40:28.580Z,51.290924
2022-09-14T05:41:28.512Z,51.291084
2022-09-14T05:42:28.517Z,51.291073
2022-09-14T05:43:28.544Z,51.291107
2022-09-14T05:44:28.497Z,51.290951
2022-09-14T05:45:28.479Z,51.290764
2022-09-14T05:46:28.507Z,51.290939
2022-09-14T05:47:28.505Z,51.291054
2022-09-14T05:48:28.435Z,51.290924
2022-09-14T05:49:28.454Z,51.291134
2022-09-14T05:50:28.435Z,51.291000
2022-09-14T05:51:28.469Z,51.290977
2022-09-14T05:52:28.408Z,51.291031
2022-09-14T05:53:28.393Z,51.291119
2022-09-14T05:54:28.388Z,51.290867
2022-09-14T05:55:28.365Z,51.291042
2022-09-14T05:56:28.371Z,51.291054
2022-09-14T05:57:29.366Z,51.291294
2022-09-14T05:58:28.357Z,51.291271
2022-09-14T05:59:28.395Z,51.291321
2022-09-14T06:00:28.359Z,51.291245
2022-09-14T06:01:28.371Z,51.291237
2022-09-14T06:02:28.310Z,51.291199
2022-09-14T06:03:28.325Z,51.291168
2022-09-14T06:04:28.285Z,51.291206
2022-09-14T06:05:28.338Z,51.291245
2022-09-14T06:06:28.266Z,51.291218
2022-09-14T06:07:28.328Z,51.291161
2022-09-14T06:08:28.273Z,51.291210
2022-09-14T06:09:32.926Z,51.291233
2022-09-14T06:10:28.205Z,51.291317
2022-09-14T06:11:28.213Z,51.291241
2022-09-14T06:12:28.181Z,51.291264
2022-09-14T06:13:28.153Z,51.291279
2022-09-14T06:14:28.177Z,51.291218
2022-09-14T06:15:28.182Z,51.291248
2022-09-14T06:16:28.284Z,51.291100
2022-09-14T06:17:28.150Z,51.291088
2022-09-14T06:18:28.143Z,51.291222
2022-09-14T06:19:28.102Z,51.291264
2022-09-14T06:20:28.185Z,51.291267
2022-09-14T06:21:28.130Z,51.291176
2022-09-14T06:22:28.077Z,51.291290
2022-09-14T06:23:28.072Z,51.291389
2022-09-14T06:24:28.078Z,51.291252
2022-09-14T06:25:28.174Z,51.291229
2022-09-14T06:26:28.116Z,51.291195
2022-09-14T06:27:28.060Z,51.291153
2022-09-14T06:28:28.038Z,51.291210
2022-09-14T06:29:28.010Z,51.291187
2022-09-14T06:30:28.014Z,51.291203
2022-09-14T06:31:28.010Z,51.291203
2022-09-14T06:32:27.983Z,51.291195
2022-09-14T06:33:27.965Z,51.291210
2022-09-14T06:34:27.954Z,51.291157
2022-09-14T06:35:27.948Z,51.291325
2022-09-14T06:36:27.954Z,51.291214
2022-09-14T06:37:27.920Z,51.291302
2022-09-14T06:38:27.939Z,51.291191
2022-09-14T06:39:27.900Z,51.291126
2022-09-14T06:40:28.000Z,51.291100
2022-09-14T06:41:27.908Z,51.291195
2022-09-14T06:42:27.870Z,51.291191
2022-09-14T06:43:27.853Z,51.291023
2022-09-14T06:44:27.843Z,51.291008
2022-09-14T06:45:27.838Z,51.290955
2022-09-14T06:46:27.825Z,51.291161
2022-09-14T06:47:27.805Z,51.291351
2022-09-14T06:48:27.796Z,51.291401
2022-09-14T06:49:27.790Z,51.291267
2022-09-14T06:50:27.796Z,51.291161
2022-09-14T06:51:27.780Z,51.291210
2022-09-14T06:52:31.722Z,51.291187
2022-09-14T06:53:27.726Z,51.291199
2022-09-14T06:54:27.736Z,51.291229
2022-09-14T06:55:27.750Z,51.291260
2022-09-14T06:56:27.732Z,51.291153
2022-09-14T06:57:27.689Z,51.291218
2022-09-14T06:58:27.679Z,51.291161
2022-09-14T06:59:27.688Z,51.291225
2022-09-14T07:00:27.696Z,51.291248
2022-09-14T07:01:27.699Z,51.291248
2022-09-14T07:02:27.698Z,51.291180
2022-09-14T07:03:27.629Z,51.291195
2022-09-14T07:04:27.630Z,51.291733
2022-09-14T07:05:27.669Z,51.291222
2022-09-14T07:06:27.643Z,51.291267
2022-09-14T07:07:27.594Z,51.291164
2022-09-14T07:08:27.653Z,51.291126
2022-09-14T07:09:27.577Z,51.291256
2022-09-14T07:10:27.590Z,51.291256
2022-09-14T07:11:27.996Z,51.291100
2022-09-14T07:12:27.575Z,51.291035
2022-09-14T07:13:28.971Z,51.291058
2022-09-14T07:14:32.013Z,51.291191
2022-09-14T07:15:27.651Z,51.291279
2022-09-14T07:16:27.582Z,51.291256
2022-09-14T07:17:27.506Z,51.291187
2022-09-14T07:18:27.565Z,51.291210
2022-09-14T07:19:27.547Z,51.291142
2022-09-14T07:20:27.844Z,51.291264
2022-09-14T07:21:27.552Z,51.291298
2022-09-14T07:22:27.636Z,51.291309
2022-09-14T07:23:27.470Z,51.291229
2022-09-14T07:24:27.553Z,51.291332
2022-09-14T07:25:27.453Z,51.291168
2022-09-14T07:26:27.611Z,51.291237
2022-09-14T07:27:27.610Z,51.291206
2022-09-14T07:28:27.450Z,51.291409
2022-09-14T07:29:27.398Z,51.291515
2022-09-14T07:30:27.437Z,51.291336
2022-09-14T07:31:27.581Z,51.291306
2022-09-14T07:32:27.352Z,51.291286
2022-09-14T07:33:27.372Z,51.291203
2022-09-14T07:34:27.354Z,51.291229
2022-09-14T07:35:27.332Z,51.291229
2022-09-14T07:36:29.501Z,51.291241
2022-09-14T07:37:27.298Z,51.291294
2022-09-14T07:38:48.598Z,51.291328
2022-09-14T07:39:27.277Z,51.291306
2022-09-14T07:40:27.379Z,51.291321
2022-09-14T07:41:27.314Z,51.291363
2022-09-14T07:42:27.246Z,51.291229
2022-09-14T07:43:27.233Z,51.291336
2022-09-14T07:44:27.213Z,51.291306
2022-09-14T07:45:27.217Z,51.291168
2022-09-14T07:46:27.239Z,51.291252
2022-09-14T07:47:27.164Z,51.291237
2022-09-14T07:48:27.206Z,51.291317
2022-09-14T07:49:27.158Z,51.291199
2022-09-14T07:50:27.150Z,51.291264
2022-09-14T07:51:27.193Z,51.291328
2022-09-14T07:52:27.148Z,51.291199
2022-09-14T07:53:27.170Z,51.291145
2022-09-14T07:54:27.135Z,51.291241
2022-09-14T07:55:27.105Z,51.291138
2022-09-14T07:56:27.177Z,51.291195
2022-09-14T07:57:52.177Z,51.291176
2022-09-14T07:58:27.075Z,51.291267
2022-09-14T07:59:42.285Z,51.291325
2022-09-14T08:00:29.042Z,51.291378
2022-09-14T08:01:27.116Z,51.291363
2022-09-14T08:02:27.065Z,51.291256
2022-09-14T08:03:27.027Z,51.291241
2022-09-14T08:04:27.012Z,51.291210
2022-09-14T08:05:26.978Z,51.291241
2022-09-14T08:06:27.673Z,51.291252
2022-09-14T08:07:26.969Z,51.291306
2022-09-14T08:08:26.954Z,51.291206
2022-09-14T08:09:26.946Z,51.291069
2022-09-14T08:10:26.942Z,51.291229
2022-09-14T08:11:26.921Z,51.291275
2022-09-14T08:12:26.933Z,51.291302
2022-09-14T08:13:26.921Z,51.291336
2022-09-14T08:14:26.900Z,51.291378
2022-09-14T08:15:28.645Z,51.291389
2022-09-14T08:16:26.909Z,51.290878
2022-09-14T08:17:26.898Z,51.290848
2022-09-14T08:18:26.878Z,51.291088
2022-09-14T08:19:26.851Z,51.291260
2022-09-14T08:20:26.824Z,51.291370
2022-09-14T08:21:26.866Z,51.291355
2022-09-14T08:22:26.857Z,51.291283
2022-09-14T08:23:26.813Z,51.291294
2022-09-14T08:24:26.805Z,51.291229
2022-09-14T08:25:26.798Z,51.291191
2022-09-14T08:26:26.766Z,51.291252
2022-09-14T08:27:26.791Z,51.291271
2022-09-14T08:28:26.765Z,51.291218
2022-09-14T08:29:26.748Z,51.291233
2022-09-14T08:30:27.761Z,51.291294
2022-09-14T08:31:26.750Z,51.291248
2022-09-14T08:32:26.765Z,51.291348
2022-09-14T08:33:26.746Z,51.291229
2022-09-14T08:34:26.693Z,51.291206
2022-09-14T08:35:46.851Z,51.291229
2022-09-14T08:36:26.686Z,51.291256
2022-09-14T08:37:26.692Z,51.291122
2022-09-14T08:38:26.633Z,51.291161
2022-09-14T08:39:26.649Z,51.291275
2022-09-14T08:40:26.659Z,51.291111
2022-09-14T08:41:26.619Z,51.291119
2022-09-14T08:42:26.626Z,51.291214
2022-09-14T08:43:26.649Z,51.291256
2022-09-14T08:44:26.607Z,51.291279
2022-09-14T08:45:26.630Z,51.291290
2022-09-14T08:46:26.613Z,51.291328
2022-09-14T08:47:26.624Z,51.291229
2022-09-14T08:48:26.583Z,51.291260
2022-09-14T08:49:26.538Z,51.291286
2022-09-14T08:50:26.524Z,51.291176
2022-09-14T08:51:26.510Z,51.291191
2022-09-14T08:52:26.532Z,51.291210
2022-09-14T08:53:26.488Z,51.291138
2022-09-14T08:54:26.508Z,51.291214
2022-09-14T08:55:26.478Z,51.291348
2022-09-14T08:56:26.447Z,51.291409
2022-09-14T08:57:26.453Z,51.291328
2022-09-14T08:58:26.469Z,51.291225
2022-09-14T08:59:26.468Z,51.291210
2022-09-14T09:00:26.403Z,51.291203
2022-09-14T09:01:26.481Z,51.291187
2022-09-14T09:02:26.386Z,51.291401
2022-09-14T09:03:26.442Z,51.291401
2022-09-14T09:04:26.398Z,51.291229
2022-09-14T09:05:26.437Z,51.291107
2022-09-14T09:06:26.355Z,51.291218
2022-09-14T09:07:26.367Z,51.291203
2022-09-14T09:08:26.332Z,51.291229
2022-09-14T09:09:26.295Z,51.291233
2022-09-14T09:10:26.331Z,51.291241
2022-09-14T09:11:26.312Z,51.291164
2022-09-14T09:12:26.279Z,51.291145
2022-09-14T09:13:26.261Z,51.291256
2022-09-14T09:14:26.268Z,51.291176
2022-09-14T09:15:26.225Z,51.291214
2022-09-14T09:16:26.274Z,51.291203
2022-09-14T09:17:26.220Z,51.291294
2022-09-14T09:18:26.199Z,51.291424
2022-09-14T09:19:28.706Z,51.291340
2022-09-14T09:20:26.189Z,51.291302
2022-09-14T09:21:26.192Z,51.291206
2022-09-14T09:22:26.168Z,51.291149
2022-09-14T09:23:26.170Z,51.291176
2022-09-14T09:24:26.261Z,51.291248
2022-09-14T09:25:26.174Z,51.291336
2022-09-14T09:26:26.194Z,51.291313
2022-09-14T09:27:26.138Z,51.291267
2022-09-14T09:28:26.100Z,51.291161
2022-09-14T09:29:26.094Z,51.291065
2022-09-14T09:30:26.090Z,51.291023
2022-09-14T09:31:26.165Z,51.291180
2022-09-14T09:32:26.084Z,51.291210
2022-09-14T09:33:26.041Z,51.291180
2022-09-14T09:34:26.042Z,51.291157
2022-09-14T09:35:26.045Z,51.291172
2022-09-14T09:36:26.009Z,51.291355
2022-09-14T09:37:26.024Z,51.291199
2022-09-14T09:38:26.009Z,51.291363
2022-09-14T09:39:25.993Z,51.291176
2022-09-14T09:40:26.035Z,51.291283
2022-09-14T09:41:25.981Z,51.291233
2022-09-14T09:42:25.984Z,51.291180
2022-09-14T09:43:47.833Z,51.291290
2022-09-14T09:44:25.954Z,51.291401
2022-09-14T09:45:25.923Z,51.291019
2022-09-14T09:46:25.979Z,51.291199
2022-09-14T09:47:25.928Z,51.291225
2022-09-14T09:48:25.916Z,51.291458
2022-09-14T09:49:25.883Z,51.291515
2022-09-14T09:50:25.905Z,51.291740
2022-09-14T09:51:25.868Z,51.291145
2022-09-14T09:52:25.870Z,51.291363
2022-09-14T09:53:25.851Z,51.291172
2022-09-14T09:54:25.848Z,51.290981
2022-09-14T09:55:25.803Z,51.291107
2022-09-14T09:56:27.018Z,51.291500
2022-09-14T09:57:25.833Z,51.291309
2022-09-14T09:58:25.781Z,51.291290
2022-09-14T09:59:25.781Z,51.291359
2022-09-14T10:00:25.784Z,51.291306
2022-09-14T10:01:25.812Z,51.291233
2022-09-14T10:02:25.885Z,51.291351
2022-09-14T10:03:25.750Z,51.291222
2022-09-14T10:04:25.710Z,51.291187
2022-09-14T10:05:25.742Z,51.291267
2022-09-14T10:06:25.733Z,51.290878
2022-09-14T10:07:25.746Z,51.291199
2022-09-14T10:08:25.695Z,51.291187
2022-09-14T10:09:25.679Z,51.291191
2022-09-14T10:10:25.663Z,51.291183
2022-09-14T10:11:25.651Z,51.291191
2022-09-14T10:12:25.682Z,51.291237
2022-09-14T10:13:25.665Z,51.291245
2022-09-14T10:14:25.611Z,51.291306
2022-09-14T10:15:25.605Z,51.291328
2022-09-14T10:16:25.685Z,51.291252
2022-09-14T10:17:25.568Z,51.291340
2022-09-14T10:18:25.590Z,51.291225
2022-09-14T10:19:25.593Z,51.291241
2022-09-14T10:20:25.579Z,51.291168
2022-09-14T10:21:25.553Z,51.290863
2022-09-14T10:22:26.615Z,51.291157
2022-09-14T10:23:26.554Z,51.291359
2022-09-14T10:24:25.519Z,51.291210
2022-09-14T10:25:25.517Z,51.291317
2022-09-14T10:26:25.494Z,51.291214
2022-09-14T10:27:25.500Z,51.291035
2022-09-14T10:28:25.506Z,51.291328
2022-09-14T10:29:25.453Z,51.291138
2022-09-14T10:30:25.460Z,51.291107
2022-09-14T10:31:25.486Z,51.291168
2022-09-14T10:32:25.472Z,51.291191
2022-09-14T10:33:25.491Z,51.291149
2022-09-14T10:34:25.429Z,51.291229
2022-09-14T10:35:25.404Z,51.291107
2022-09-14T10:36:25.420Z,51.291183
2022-09-14T10:37:25.405Z,51.291218
2022-09-14T10:38:25.368Z,51.291191
2022-09-14T10:39:26.293Z,51.291180
2022-09-14T10:40:25.385Z,51.291363
2022-09-14T10:41:25.330Z,51.291420
2022-09-14T10:42:25.400Z,51.291393
2022-09-14T10:43:25.334Z,51.291206
2022-09-14T10:44:25.340Z,51.291203
2022-09-14T10:45:25.285Z,51.291271
2022-09-14T10:46:25.322Z,51.291248
2022-09-14T10:47:25.263Z,51.291245
2022-09-14T10:48:25.276Z,51.291256
2022-09-14T10:49:25.278Z,51.291248
2022-09-14T10:50:25.250Z,51.291161
2022-09-14T10:51:25.232Z,51.291145
2022-09-14T10:52:25.206Z,51.291172
2022-09-14T10:53:25.225Z,51.291130
2022-09-14T10:54:25.233Z,51.291050
2022-09-14T10:55:25.200Z,51.291031
2022-09-14T10:56:25.180Z,51.291187
2022-09-14T10:57:25.172Z,51.291271
2022-09-14T10:58:25.153Z,51.291237
2022-09-14T10:59:25.204Z,51.291111
2022-09-14T11:00:25.424Z,51.291206
2022-09-14T11:01:25.147Z,51.291229
2022-09-14T11:02:25.312Z,51.291248
2022-09-14T11:03:25.111Z,51.291210
2022-09-14T11:04:25.086Z,51.291306
2022-09-14T11:05:25.102Z,51.291416
2022-09-14T11:06:25.090Z,51.291245
2022-09-14T11:07:25.048Z,51.291557
2022-09-14T11:08:25.046Z,51.291180
2022-09-14T11:09:25.276Z,51.291180
2022-09-14T11:10:25.100Z,51.291126
2022-09-14T11:11:24.999Z,51.291210
2022-09-14T11:12:25.001Z,51.291122
2022-09-14T11:13:24.988Z,51.291023
2022-09-14T11:14:24.969Z,51.291245
2022-09-14T11:15:24.963Z,51.291229
2022-09-14T11:16:25.059Z,51.291138
2022-09-14T11:17:24.944Z,51.291321
2022-09-14T11:18:24.934Z,51.291477
2022-09-14T11:19:24.924Z,51.291336
2022-09-14T11:20:24.921Z,51.291248
2022-09-14T11:21:24.954Z,51.291145
2022-09-14T11:22:24.895Z,51.291172
2022-09-14T11:23:24.861Z,51.291195
2022-09-14T11:24:24.861Z,51.291210